createdAt,value
2019-01-26T00:00:44.608Z,0.63
2019-01-26T00:03:15.856Z,0.65
2019-01-26T00:05:46.747Z,0.67
2019-01-26T00:08:17.643Z,0.74
2019-01-26T00:10:48.559Z,0.77
2019-01-26T00:13:19.455Z,0.78
2019-01-26T00:15:50.473Z,0.75
2019-01-26T00:18:21.695Z,0.75
2019-01-26T00:20:52.579Z,0.80
2019-01-26T00:23:23.510Z,0.81
2019-01-26T00:25:54.487Z,0.85
2019-01-26T00:28:25.716Z,0.84
2019-01-26T00:30:56.671Z,0.88
2019-01-26T00:33:27.573Z,0.87
2019-01-26T00:35:58.783Z,0.84
2019-01-26T00:38:29.755Z,0.88
2019-01-26T00:41:00.785Z,0.88
2019-01-26T00:43:31.687Z,0.86
2019-01-26T00:46:02.582Z,0.90
2019-01-26T00:48:33.553Z,0.95
2019-01-26T00:51:04.686Z,0.91
2019-01-26T00:53:35.695Z,0.92
2019-01-26T00:56:06.762Z,0.94
2019-01-26T00:58:37.660Z,0.97
2019-01-26T01:01:08.578Z,1.03
2019-01-26T01:03:39.544Z,1.05
2019-01-26T01:06:10.517Z,1.03
2019-01-26T01:08:41.419Z,1.03
2019-01-26T01:11:12.494Z,1.06
2019-01-26T01:13:43.696Z,1.06
2019-01-26T01:16:14.582Z,1.08
2019-01-26T01:18:45.555Z,1.06
2019-01-26T01:21:16.489Z,1.12
2019-01-26T01:23:47.689Z,1.10
2019-01-26T01:26:18.612Z,1.13
2019-01-26T01:28:49.503Z,1.16
2019-01-26T01:31:20.446Z,1.13
2019-01-26T01:33:51.444Z,1.07
2019-01-26T01:36:22.404Z,1.11
2019-01-26T01:38:53.336Z,1.08
2019-01-26T01:41:24.535Z,1.16
2019-01-26T01:43:55.575Z,1.23
2019-01-26T01:46:26.547Z,1.19
2019-01-26T01:48:57.421Z,1.12
2019-01-26T01:51:28.734Z,1.24
2019-01-26T01:54:00.212Z,1.28
2019-01-26T01:56:31.471Z,1.26
2019-01-26T01:59:02.403Z,1.23
2019-01-26T02:01:33.360Z,1.28
2019-01-26T02:04:04.572Z,1.22
2019-01-26T02:06:35.549Z,1.22
2019-01-26T02:09:09.573Z,1.24
2019-01-26T02:11:40.915Z,1.28
2019-01-26T02:14:12.186Z,1.28
2019-01-26T02:16:49.926Z,1.28
2019-01-26T02:19:15.996Z,1.41
2019-01-26T02:21:46.952Z,1.33
2019-01-26T02:24:17.848Z,1.31
2019-01-26T02:26:48.769Z,1.32
2019-01-26T02:29:19.781Z,1.40
2019-01-26T02:31:50.736Z,1.42
2019-01-26T02:34:21.971Z,1.34
2019-01-26T02:36:53.239Z,1.45
2019-01-26T02:39:24.497Z,1.41
2019-01-26T02:41:55.380Z,1.43
2019-01-26T02:44:26.626Z,1.47
2019-01-26T02:46:58.081Z,1.43
2019-01-26T02:49:29.337Z,1.43
2019-01-26T02:52:00.333Z,1.48
2019-01-26T02:54:31.271Z,1.52
2019-01-26T02:57:02.282Z,1.60
2019-01-26T02:59:33.295Z,1.52
2019-01-26T03:02:04.997Z,1.47
2019-01-26T03:04:35.957Z,1.55
2019-01-26T03:07:07.468Z,1.45
2019-01-26T03:09:38.393Z,1.55
2019-01-26T03:12:09.407Z,1.58
2019-01-26T03:14:40.309Z,1.57
2019-01-26T03:17:11.339Z,1.67
2019-01-26T03:19:42.361Z,1.64
2019-01-26T03:22:13.654Z,1.68
2019-01-26T03:24:44.577Z,1.62
2019-01-26T03:27:15.563Z,1.61
2019-01-26T03:29:46.565Z,1.55
2019-01-26T03:32:17.487Z,1.74
2019-01-26T03:34:48.408Z,1.65
2019-01-26T03:37:19.338Z,1.65
2019-01-26T03:39:50.309Z,1.65
2019-01-26T03:42:21.234Z,1.70
2019-01-26T03:44:52.133Z,1.69
2019-01-26T03:47:23.137Z,1.73
2019-01-26T03:49:54.085Z,1.72
2019-01-26T03:52:25.027Z,1.75
2019-01-26T03:54:55.979Z,1.78
2019-01-26T03:57:26.985Z,1.90
2019-01-26T03:59:58.370Z,1.86
2019-01-26T04:02:29.321Z,1.93
2019-01-26T04:05:00.904Z,1.82
2019-01-26T04:07:31.972Z,1.81
2019-01-26T04:10:03.179Z,1.79
2019-01-26T04:12:34.130Z,1.87
2019-01-26T04:15:05.672Z,1.93
2019-01-26T04:17:36.874Z,1.87
2019-01-26T04:20:09.995Z,1.85
2019-01-26T04:22:41.039Z,1.79
2019-01-26T04:25:12.103Z,1.79
2019-01-26T04:27:43.069Z,1.74
2019-01-26T04:30:18.068Z,1.72
2019-01-26T04:32:49.180Z,1.69
2019-01-26T04:35:20.104Z,1.71
2019-01-26T04:37:51.066Z,1.72
2019-01-26T04:40:22.045Z,1.72
2019-01-26T04:42:52.973Z,1.70
2019-01-26T04:45:25.284Z,1.69
2019-01-26T04:47:56.165Z,1.65
2019-01-26T04:50:27.090Z,1.67
2019-01-26T04:52:58.059Z,1.65
2019-01-26T04:55:28.986Z,1.68
2019-01-26T04:57:59.943Z,1.69
2019-01-26T05:00:31.344Z,1.66
2019-01-26T05:03:02.534Z,1.65
2019-01-26T05:05:33.513Z,1.61
2019-01-26T05:08:04.873Z,1.62
2019-01-26T05:10:35.874Z,1.59
2019-01-26T05:13:06.815Z,1.57
2019-01-26T05:15:38.052Z,1.56
2019-01-26T05:18:09.018Z,1.56
2019-01-26T05:20:39.933Z,1.55
2019-01-26T05:23:10.936Z,1.56
2019-01-26T05:25:41.836Z,1.59
2019-01-26T05:28:13.039Z,1.58
2019-01-26T05:30:44.044Z,1.58
2019-01-26T05:33:14.978Z,1.59
2019-01-26T05:35:45.906Z,1.58
2019-01-26T05:38:16.792Z,1.59
2019-01-26T05:40:47.693Z,1.60
2019-01-26T05:43:18.623Z,1.62
2019-01-26T05:45:49.553Z,1.61
2019-01-26T05:48:20.519Z,1.62
2019-01-26T05:50:51.406Z,1.63
2019-01-26T05:53:22.612Z,1.70
2019-01-26T05:55:53.553Z,1.90
2019-01-26T05:58:24.491Z,1.89
2019-01-26T06:00:55.798Z,1.78
2019-01-26T06:03:26.709Z,1.79
2019-01-26T06:05:57.620Z,1.83
2019-01-26T06:08:28.547Z,1.76
2019-01-26T06:10:59.506Z,1.81
2019-01-26T06:13:30.457Z,1.83
2019-01-26T06:16:01.351Z,1.99
2019-01-26T06:18:32.254Z,1.98
2019-01-26T06:21:03.218Z,2.11
2019-01-26T06:23:34.475Z,2.13
2019-01-26T06:26:05.547Z,2.17
2019-01-26T06:28:36.461Z,2.17
2019-01-26T06:31:07.387Z,2.22
2019-01-26T06:33:38.302Z,2.25
2019-01-26T06:36:09.230Z,2.29
2019-01-26T06:38:40.241Z,2.39
2019-01-26T06:41:11.210Z,2.36
2019-01-26T06:43:42.099Z,2.51
2019-01-26T06:46:13.017Z,2.40
2019-01-26T06:48:44.818Z,2.47
2019-01-26T06:51:15.729Z,2.50
2019-01-26T06:53:46.700Z,2.51
2019-01-26T06:56:18.572Z,2.45
2019-01-26T06:58:49.870Z,2.45
2019-01-26T07:01:20.827Z,2.46
2019-01-26T07:03:51.773Z,2.58
2019-01-26T07:06:34.148Z,2.55
2019-01-26T07:09:08.563Z,2.73
2019-01-26T07:11:39.573Z,2.79
2019-01-26T07:14:11.093Z,2.74
2019-01-26T07:16:42.065Z,2.84
2019-01-26T07:19:13.003Z,2.85
2019-01-26T07:21:43.910Z,3.01
2019-01-26T07:24:14.813Z,2.95
2019-01-26T07:26:45.788Z,2.93
2019-01-26T07:29:16.970Z,2.98
2019-01-26T07:31:47.855Z,2.93
2019-01-26T07:34:18.859Z,2.92
2019-01-26T07:36:49.820Z,2.96
2019-01-26T07:39:20.771Z,3.00
2019-01-26T07:41:51.729Z,2.95
2019-01-26T07:44:22.922Z,2.90
2019-01-26T07:46:53.846Z,2.89
2019-01-26T07:49:24.827Z,2.85
2019-01-26T07:51:56.012Z,2.81
2019-01-26T07:54:26.953Z,2.77
2019-01-26T07:56:57.885Z,2.73
2019-01-26T07:59:28.792Z,2.74
2019-01-26T08:01:59.731Z,2.75
2019-01-26T08:04:30.713Z,2.71
2019-01-26T08:07:01.618Z,2.66
2019-01-26T08:09:32.510Z,2.66
2019-01-26T08:12:03.570Z,2.75
2019-01-26T08:14:34.490Z,2.75
2019-01-26T08:17:05.370Z,2.76
2019-01-26T08:19:36.341Z,2.74
2019-01-26T08:22:07.242Z,2.71
2019-01-26T08:24:38.192Z,2.64
2019-01-26T08:27:09.158Z,2.81
2019-01-26T08:29:40.070Z,2.85
2019-01-26T08:32:10.955Z,2.91
2019-01-26T08:34:42.213Z,2.96
2019-01-26T08:37:13.118Z,3.03
2019-01-26T08:39:44.101Z,2.98
2019-01-26T08:42:15.349Z,2.99
2019-01-26T08:44:46.273Z,2.95
2019-01-26T08:47:17.234Z,3.00
2019-01-26T08:49:48.491Z,2.95
2019-01-26T08:52:19.757Z,3.11
2019-01-26T08:54:50.669Z,3.21
2019-01-26T08:57:21.648Z,3.30
2019-01-26T08:59:52.596Z,3.30
2019-01-26T09:02:42.421Z,3.38
2019-01-26T09:05:15.503Z,3.38
2019-01-26T09:07:46.567Z,3.47
2019-01-26T09:10:17.497Z,3.44
2019-01-26T09:12:48.405Z,3.49
2019-01-26T09:15:19.376Z,3.51
2019-01-26T09:17:50.336Z,3.64
2019-01-26T09:20:22.477Z,3.70
2019-01-26T09:22:53.481Z,3.69
2019-01-26T09:25:24.489Z,3.82
2019-01-26T09:27:55.715Z,3.84
2019-01-26T09:30:26.697Z,3.93
2019-01-26T09:32:57.581Z,4.02
2019-01-26T09:35:28.496Z,4.20
2019-01-26T09:37:59.503Z,4.37
2019-01-26T09:40:30.487Z,4.51
2019-01-26T09:43:01.401Z,4.71
2019-01-26T09:45:32.770Z,4.88
2019-01-26T09:48:03.980Z,5.00
2019-01-26T09:50:35.263Z,5.08
2019-01-26T09:53:07.128Z,5.17
2019-01-26T09:55:38.050Z,5.29
2019-01-26T09:58:09.020Z,5.30
2019-01-26T10:00:39.967Z,5.34
2019-01-26T10:03:10.940Z,5.41
2019-01-26T10:05:41.836Z,5.49
2019-01-26T10:08:12.891Z,5.52
2019-01-26T10:10:43.906Z,5.45
2019-01-26T10:13:15.008Z,5.55
2019-01-26T10:15:45.941Z,5.53
2019-01-26T10:18:16.857Z,5.64
2019-01-26T10:20:47.772Z,5.63
2019-01-26T10:23:18.717Z,5.63
2019-01-26T10:25:50.041Z,5.65
2019-01-26T10:28:21.074Z,5.67
2019-01-26T10:31:01.371Z,5.69
2019-01-26T10:33:32.489Z,5.69
2019-01-26T10:36:22.295Z,5.65
2019-01-26T10:39:03.923Z,5.75
2019-01-26T10:42:05.868Z,5.80
2019-01-26T10:44:38.516Z,5.78
2019-01-26T10:47:10.264Z,5.76
2019-01-26T10:49:41.175Z,5.86
2019-01-26T10:52:12.218Z,5.86
2019-01-26T10:54:43.259Z,5.79
2019-01-26T10:57:14.208Z,5.80
2019-01-26T10:59:45.467Z,5.86
2019-01-26T11:02:16.886Z,5.87
2019-01-26T11:04:48.001Z,5.81
2019-01-26T11:07:18.999Z,5.83
2019-01-26T11:09:50.260Z,5.81
2019-01-26T11:12:21.242Z,5.88
2019-01-26T11:14:52.213Z,5.91
2019-01-26T11:17:23.453Z,5.94
2019-01-26T11:19:54.366Z,5.86
2019-01-26T11:22:25.622Z,5.89
2019-01-26T11:24:56.522Z,5.88
2019-01-26T11:27:27.448Z,5.79
2019-01-26T11:29:58.411Z,5.86
2019-01-26T11:32:29.385Z,5.80
2019-01-26T11:35:00.684Z,5.82
2019-01-26T11:37:31.629Z,5.79
2019-01-26T11:40:15.805Z,5.88
2019-01-26T11:42:46.995Z,5.88
2019-01-26T11:45:40.382Z,5.89
2019-01-26T11:48:23.461Z,5.87
2019-01-26T11:51:02.628Z,5.88
2019-01-26T11:53:33.528Z,5.82
2019-01-26T11:56:22.160Z,5.91
2019-01-26T11:58:53.179Z,5.88
2019-01-26T12:01:37.479Z,5.90
2019-01-26T12:04:18.082Z,5.88
2019-01-26T12:06:57.070Z,5.81
2019-01-26T12:09:28.265Z,5.89
2019-01-26T12:11:59.272Z,5.92
2019-01-26T12:14:30.537Z,5.82
2019-01-26T12:17:01.829Z,5.91
2019-01-26T12:19:32.832Z,5.90
2019-01-26T12:22:03.768Z,6.01
2019-01-26T12:24:35.118Z,6.03
2019-01-26T12:27:06.495Z,6.09
2019-01-26T12:29:38.016Z,6.08
2019-01-26T12:32:09.019Z,6.13
2019-01-26T12:34:40.300Z,6.15
2019-01-26T12:37:11.262Z,6.13
2019-01-26T12:39:42.828Z,6.19
2019-01-26T12:42:13.721Z,6.21
2019-01-26T12:44:45.386Z,6.29
2019-01-26T12:47:17.143Z,6.32
2019-01-26T12:49:48.232Z,6.36
2019-01-26T12:52:19.429Z,6.28
2019-01-26T12:54:50.827Z,6.33
2019-01-26T12:57:21.861Z,6.31
2019-01-26T12:59:53.104Z,6.28
2019-01-26T13:02:24.075Z,6.21
2019-01-26T13:04:55.117Z,6.24
2019-01-26T13:07:26.034Z,6.22
2019-01-26T13:09:57.316Z,6.26
2019-01-26T13:12:29.172Z,6.26
2019-01-26T13:15:02.643Z,6.27
2019-01-26T13:17:33.579Z,6.27
2019-01-26T13:20:06.719Z,6.27
2019-01-26T13:22:37.690Z,6.28
2019-01-26T13:25:10.060Z,6.33
2019-01-26T13:27:41.293Z,6.32
2019-01-26T13:30:16.996Z,6.36
2019-01-26T13:32:48.565Z,6.27
2019-01-26T13:35:21.069Z,6.33
2019-01-26T13:37:52.082Z,6.27
2019-01-26T13:40:23.194Z,6.29
2019-01-26T13:42:54.532Z,6.37
2019-01-26T13:45:25.566Z,6.27
2019-01-26T13:47:57.051Z,6.32
2019-01-26T13:50:28.018Z,6.26
2019-01-26T13:53:00.061Z,6.31
2019-01-26T13:55:30.976Z,6.19
2019-01-26T13:58:01.967Z,6.17
2019-01-26T14:00:33.489Z,6.15
2019-01-26T14:03:04.973Z,6.29
2019-01-26T14:05:36.078Z,6.23
2019-01-26T14:08:07.424Z,6.30
2019-01-26T14:10:38.347Z,6.36
2019-01-26T14:13:09.659Z,6.26
2019-01-26T14:15:40.603Z,6.25
2019-01-26T14:18:11.550Z,6.22
2019-01-26T14:20:42.876Z,6.21
2019-01-26T14:23:13.814Z,6.14
2019-01-26T14:25:44.771Z,6.14
2019-01-26T14:28:15.723Z,6.13
2019-01-26T14:30:52.438Z,6.12
2019-01-26T14:33:23.485Z,6.14
2019-01-26T14:35:54.486Z,6.01
2019-01-26T14:38:25.992Z,6.08
2019-01-26T14:40:57.310Z,6.01
2019-01-26T14:43:30.438Z,6.01
2019-01-26T14:46:01.462Z,5.92
2019-01-26T14:48:32.425Z,5.95
2019-01-26T14:51:04.115Z,5.98
2019-01-26T14:53:35.564Z,5.89
2019-01-26T14:56:07.076Z,5.79
2019-01-26T14:58:39.718Z,5.84
2019-01-26T15:01:11.860Z,5.87
2019-01-26T15:03:43.083Z,5.85
2019-01-26T15:06:13.990Z,5.86
2019-01-26T15:08:45.046Z,5.79
2019-01-26T15:11:15.927Z,5.74
2019-01-26T15:13:46.914Z,5.77
2019-01-26T15:16:17.886Z,5.79
2019-01-26T15:18:48.843Z,5.78
2019-01-26T15:21:20.058Z,5.77
2019-01-26T15:23:51.513Z,5.74
2019-01-26T15:26:22.489Z,5.73
2019-01-26T15:28:54.427Z,5.70
2019-01-26T15:31:25.566Z,5.62
2019-01-26T15:33:57.673Z,5.65
2019-01-26T15:36:29.029Z,5.57
2019-01-26T15:39:00.294Z,5.58
2019-01-26T15:41:33.444Z,5.54
2019-01-26T15:44:04.343Z,5.51
2019-01-26T15:46:35.332Z,5.43
2019-01-26T15:49:06.272Z,5.59
2019-01-26T15:51:37.284Z,5.45
2019-01-26T15:54:08.258Z,5.53
2019-01-26T15:56:39.190Z,5.52
2019-01-26T15:59:10.924Z,5.43
2019-01-26T16:01:41.891Z,5.53
2019-01-26T16:04:12.860Z,5.53
2019-01-26T16:06:44.103Z,5.48
2019-01-26T16:09:15.370Z,5.46
2019-01-26T16:11:49.102Z,5.46
2019-01-26T16:14:20.184Z,5.50
2019-01-26T16:16:51.696Z,5.45
2019-01-26T16:19:22.696Z,5.33
2019-01-26T16:21:53.749Z,5.40
2019-01-26T16:24:24.702Z,5.31
2019-01-26T16:26:55.702Z,5.22
2019-01-26T16:29:26.722Z,5.34
2019-01-26T16:31:57.942Z,5.33
2019-01-26T16:34:29.341Z,5.34
2019-01-26T16:37:02.126Z,5.34
2019-01-26T16:39:33.373Z,5.37
2019-01-26T16:42:04.816Z,5.39
2019-01-26T16:44:38.634Z,5.36
2019-01-26T16:47:09.718Z,5.26
2019-01-26T16:49:41.422Z,5.22
2019-01-26T16:52:14.067Z,5.25
2019-01-26T16:54:45.159Z,5.24
2019-01-26T16:57:16.505Z,5.24
2019-01-26T16:59:47.429Z,5.30
2019-01-26T17:02:18.347Z,5.25
2019-01-26T17:04:49.443Z,5.34
2019-01-26T17:07:20.411Z,5.28
2019-01-26T17:09:51.305Z,5.22
2019-01-26T17:12:22.462Z,5.18
2019-01-26T17:14:53.382Z,5.17
2019-01-26T17:17:24.281Z,5.13
2019-01-26T17:19:55.268Z,5.17
2019-01-26T17:22:26.179Z,5.21
2019-01-26T17:24:57.121Z,5.13
2019-01-26T17:27:28.460Z,5.19
2019-01-26T17:29:59.384Z,5.16
2019-01-26T17:32:30.391Z,5.29
2019-01-26T17:35:01.985Z,5.17
2019-01-26T17:37:32.938Z,5.12
2019-01-26T17:40:04.100Z,5.22
2019-01-26T17:42:35.047Z,5.19
2019-01-26T17:45:07.337Z,5.17
2019-01-26T17:47:38.267Z,5.16
2019-01-26T17:50:13.423Z,5.11
2019-01-26T17:52:44.343Z,5.05
2019-01-26T17:55:15.500Z,5.09
2019-01-26T17:57:46.637Z,5.18
2019-01-26T18:00:33.214Z,5.22
2019-01-26T18:03:04.303Z,5.22
2019-01-26T18:05:35.335Z,5.30
2019-01-26T18:08:06.492Z,5.26
2019-01-26T18:10:37.474Z,5.19
2019-01-26T18:13:08.849Z,5.09
2019-01-26T18:15:39.766Z,5.16
2019-01-26T18:18:10.823Z,5.19
2019-01-26T18:20:42.060Z,5.16
2019-01-26T18:23:15.214Z,5.15
2019-01-26T18:25:47.392Z,5.19
2019-01-26T18:28:18.518Z,5.24
2019-01-26T18:30:50.261Z,5.19
2019-01-26T18:33:21.210Z,5.16
2019-01-26T18:35:53.941Z,5.11
2019-01-26T18:38:24.907Z,5.10
2019-01-26T18:40:56.439Z,5.04
2019-01-26T18:43:27.440Z,5.12
2019-01-26T18:45:58.966Z,5.16
2019-01-26T18:48:29.915Z,5.04
2019-01-26T18:51:00.888Z,5.00
2019-01-26T18:53:31.851Z,5.03
2019-01-26T18:56:02.781Z,4.98
2019-01-26T18:58:34.400Z,4.97
2019-01-26T19:01:06.830Z,5.03
2019-01-26T19:04:10.351Z,5.02
2019-01-26T19:06:41.341Z,4.93
2019-01-26T19:09:13.873Z,4.87
2019-01-26T19:11:45.939Z,4.88
2019-01-26T19:14:16.906Z,4.86
2019-01-26T19:16:48.283Z,4.89
2019-01-26T19:19:19.271Z,4.91
2019-01-26T19:21:52.202Z,4.88
2019-01-26T19:24:23.200Z,4.96
2019-01-26T19:26:54.452Z,4.91
2019-01-26T19:29:25.363Z,4.96
2019-01-26T19:31:56.319Z,4.90
2019-01-26T19:34:27.292Z,4.90
2019-01-26T19:36:58.900Z,4.92
2019-01-26T19:39:29.948Z,4.91
2019-01-26T19:42:01.181Z,4.85
2019-01-26T19:44:32.546Z,4.82
2019-01-26T19:47:06.417Z,4.71
2019-01-26T19:49:37.921Z,4.79
2019-01-26T19:52:09.330Z,4.78
2019-01-26T19:54:41.450Z,4.77
2019-01-26T19:57:13.054Z,4.80
2019-01-26T19:59:44.311Z,4.77
2019-01-26T20:02:15.676Z,4.93
2019-01-26T20:04:47.258Z,4.98
2019-01-26T20:07:18.565Z,5.05
2019-01-26T20:09:49.615Z,5.06
2019-01-26T20:12:21.989Z,5.14
2019-01-26T20:14:53.254Z,5.11
2019-01-26T20:17:24.328Z,5.13
2019-01-26T20:19:55.556Z,5.14
2019-01-26T20:22:26.892Z,5.15
2019-01-26T20:24:58.166Z,5.18
2019-01-26T20:27:29.161Z,5.08
2019-01-26T20:30:00.227Z,5.17
2019-01-26T20:32:31.659Z,5.05
2019-01-26T20:35:02.660Z,5.01
2019-01-26T20:37:34.527Z,5.02
2019-01-26T20:40:07.097Z,5.04
2019-01-26T20:42:38.129Z,5.03
2019-01-26T20:45:16.626Z,5.11
2019-01-26T20:47:48.208Z,5.04
2019-01-26T20:50:19.294Z,5.05
2019-01-26T20:52:50.352Z,5.04
2019-01-26T20:55:21.289Z,5.11
2019-01-26T20:57:52.254Z,5.11
2019-01-26T21:00:29.832Z,5.08
2019-01-26T21:03:00.923Z,4.95
2019-01-26T21:05:31.934Z,4.87
2019-01-26T21:08:04.169Z,4.81
2019-01-26T21:10:35.519Z,4.78
2019-01-26T21:13:06.935Z,4.70
2019-01-26T21:15:37.904Z,4.71
2019-01-26T21:18:09.186Z,4.69
2019-01-26T21:20:40.127Z,4.65
2019-01-26T21:23:11.714Z,4.73
2019-01-26T21:25:43.614Z,4.61
2019-01-26T21:28:14.584Z,4.55
2019-01-26T21:30:45.507Z,4.43
2019-01-26T21:33:16.768Z,4.38
2019-01-26T21:35:49.949Z,4.40
2019-01-26T21:38:20.900Z,4.47
2019-01-26T21:40:51.902Z,4.47
2019-01-26T21:43:23.356Z,4.35
2019-01-26T21:45:54.344Z,4.44
2019-01-26T21:48:25.314Z,4.49
2019-01-26T21:50:56.911Z,4.51
2019-01-26T21:53:30.026Z,4.45
2019-01-26T21:56:01.317Z,4.40
2019-01-26T21:58:32.285Z,4.42
2019-01-26T22:01:03.294Z,4.45
2019-01-26T22:03:34.298Z,4.44
2019-01-26T22:06:05.504Z,4.43
2019-01-26T22:08:36.714Z,4.47
2019-01-26T22:11:07.786Z,4.48
2019-01-26T22:13:38.785Z,4.52
2019-01-26T22:16:10.391Z,4.50
2019-01-26T22:18:41.466Z,4.44
2019-01-26T22:21:12.423Z,4.42
2019-01-26T22:23:43.425Z,4.50
2019-01-26T22:26:14.496Z,4.46
2019-01-26T22:28:45.417Z,4.47
2019-01-26T22:31:16.351Z,4.51
2019-01-26T22:33:47.308Z,4.45
2019-01-26T22:36:19.177Z,4.40
2019-01-26T22:38:51.319Z,4.45
2019-01-26T22:41:22.554Z,4.44
2019-01-26T22:43:53.651Z,4.49
2019-01-26T22:46:24.645Z,4.46
2019-01-26T22:48:55.546Z,4.51
2019-01-26T22:51:26.466Z,4.51
2019-01-26T22:53:57.478Z,4.48
2019-01-26T22:56:28.449Z,4.41
2019-01-26T22:58:59.457Z,4.49
2019-01-26T23:01:35.494Z,4.44
2019-01-26T23:05:21.354Z,4.48
2019-01-26T23:08:10.805Z,4.41
2019-01-26T23:11:14.789Z,4.41
2019-01-26T23:14:39.368Z,4.41
2019-01-26T23:18:01.207Z,4.39
2019-01-26T23:21:15.989Z,4.39
2019-01-26T23:24:41.716Z,4.45
2019-01-26T23:27:40.746Z,4.52
2019-01-26T23:31:15.652Z,4.41
2019-01-26T23:33:48.189Z,4.50
2019-01-26T23:36:19.417Z,4.47
2019-01-26T23:38:50.402Z,4.43
2019-01-26T23:41:21.762Z,4.38
2019-01-26T23:43:52.676Z,4.39
2019-01-26T23:46:23.765Z,4.43
2019-01-26T23:48:54.760Z,4.41
2019-01-26T23:51:25.721Z,4.40
2019-01-26T23:53:56.754Z,4.40
2019-01-26T23:56:27.727Z,4.27
2019-01-26T23:58:58.732Z,4.32
